createdAt,value
2023-01-19T00:04:25.028Z,72.56
2023-01-19T00:09:46.714Z,72.90
2023-01-19T00:15:09.070Z,73.06
2023-01-19T00:20:32.651Z,73.48
2023-01-19T00:25:54.441Z,72.65
2023-01-19T00:31:16.263Z,72.69
2023-01-19T00:36:37.992Z,72.59
2023-01-19T00:42:18.343Z,72.35
2023-01-19T00:47:40.310Z,72.46
2023-01-19T00:53:02.810Z,73.42
2023-01-19T00:58:24.673Z,73.53
2023-01-19T01:03:46.367Z,73.62
2023-01-19T01:09:11.951Z,72.86
2023-01-19T01:14:33.956Z,72.34
2023-01-19T01:19:55.626Z,72.16
2023-01-19T01:25:19.338Z,72.85
2023-01-19T01:30:41.117Z,72.84
2023-01-19T01:36:03.136Z,72.15
2023-01-19T01:41:26.645Z,71.39
2023-01-19T01:46:48.471Z,71.49
2023-01-19T01:52:11.264Z,71.23
2023-01-19T01:57:36.948Z,71.48
2023-01-19T02:03:00.543Z,71.16
2023-01-19T02:08:50.847Z,71.18
2023-01-19T02:14:12.531Z,71.40
2023-01-19T02:19:41.758Z,70.69
2023-01-19T02:25:05.222Z,71.41
2023-01-19T02:30:27.789Z,70.49
2023-01-19T02:35:51.947Z,70.71
2023-01-19T02:41:19.531Z,70.38
2023-01-19T02:46:41.687Z,70.50
2023-01-19T02:52:04.275Z,70.54
2023-01-19T02:57:43.563Z,70.74
2023-01-19T03:03:37.113Z,70.93
2023-01-19T03:09:15.430Z,71.17
2023-01-19T03:14:46.167Z,71.70
2023-01-19T03:20:08.850Z,71.00
2023-01-19T03:25:35.134Z,71.30
2023-01-19T03:31:01.822Z,70.03
2023-01-19T03:36:30.691Z,70.39
2023-01-19T03:41:57.485Z,71.67
2023-01-19T03:47:20.367Z,70.74
2023-01-19T03:52:42.367Z,71.44
2023-01-19T03:58:04.299Z,71.97
2023-01-19T04:03:26.006Z,71.98
2023-01-19T04:08:49.666Z,72.00
2023-01-19T04:14:11.402Z,71.98
2023-01-19T04:19:33.097Z,73.17
2023-01-19T04:24:55.600Z,72.13
2023-01-19T04:30:17.473Z,72.80
2023-01-19T04:35:39.229Z,72.98
2023-01-19T04:41:00.963Z,71.59
2023-01-19T04:46:22.735Z,71.34
2023-01-19T04:51:44.454Z,71.44
2023-01-19T04:57:06.161Z,71.30
2023-01-19T05:02:28.007Z,71.47
2023-01-19T05:07:49.727Z,70.75
2023-01-19T05:13:11.433Z,70.19
2023-01-19T05:18:36.287Z,70.11
2023-01-19T05:23:57.993Z,69.84
2023-01-19T05:29:19.722Z,70.56
2023-01-19T05:34:41.422Z,71.43
2023-01-19T05:40:03.370Z,70.75
2023-01-19T05:45:25.074Z,71.49
2023-01-19T05:50:49.345Z,71.03
2023-01-19T05:56:11.570Z,70.38
2023-01-19T06:01:36.498Z,70.61
2023-01-19T06:06:59.193Z,72.03
2023-01-19T06:12:20.915Z,71.28
2023-01-19T06:17:42.933Z,72.45
2023-01-19T06:23:04.737Z,71.38
2023-01-19T06:28:26.650Z,71.12
2023-01-19T06:33:48.417Z,70.91
2023-01-19T06:39:10.590Z,70.81
2023-01-19T06:44:32.312Z,70.12
2023-01-19T06:49:54.048Z,69.21
2023-01-19T06:55:16.182Z,70.41
2023-01-19T07:00:38.495Z,71.48
2023-01-19T07:06:02.528Z,71.13
2023-01-19T07:11:29.811Z,71.93
2023-01-19T07:16:54.894Z,71.01
2023-01-19T07:22:16.929Z,70.85
2023-01-19T07:27:38.756Z,70.51
2023-01-19T07:33:01.141Z,70.16
2023-01-19T07:38:24.169Z,70.96
2023-01-19T07:43:45.973Z,70.74
2023-01-19T07:49:07.937Z,71.77
2023-01-19T07:54:29.672Z,71.80
2023-01-19T07:59:51.378Z,71.08
2023-01-19T08:05:13.295Z,69.43
2023-01-19T08:10:35.069Z,68.38
2023-01-19T08:15:56.857Z,67.89
2023-01-19T08:21:18.741Z,67.67
2023-01-19T08:26:40.617Z,67.40
2023-01-19T08:32:03.102Z,67.93
2023-01-19T08:37:24.915Z,67.10
2023-01-19T08:42:46.614Z,67.96
2023-01-19T08:48:08.617Z,67.40
2023-01-19T08:53:30.325Z,68.25
2023-01-19T08:59:07.821Z,68.74
2023-01-19T09:04:30.677Z,67.51
2023-01-19T09:09:52.399Z,68.43
2023-01-19T09:15:14.103Z,67.51
2023-01-19T09:20:38.497Z,66.69
2023-01-19T09:26:02.963Z,66.17
2023-01-19T09:31:24.919Z,66.19
2023-01-19T09:36:47.229Z,66.72
2023-01-19T09:42:32.285Z,66.07
2023-01-19T09:47:55.449Z,66.58
2023-01-19T09:53:32.821Z,65.89
2023-01-19T09:58:54.542Z,66.40
2023-01-19T10:04:30.411Z,66.07
2023-01-19T10:10:19.564Z,65.91
2023-01-19T10:15:47.065Z,64.96
2023-01-19T10:21:10.498Z,65.01
2023-01-19T10:26:37.541Z,65.48
2023-01-19T10:32:08.034Z,64.93
2023-01-19T10:37:38.548Z,64.67
2023-01-19T10:43:01.179Z,64.57
2023-01-19T10:48:23.878Z,64.48
2023-01-19T10:53:59.570Z,64.27
2023-01-19T10:59:45.135Z,64.70
2023-01-19T11:05:28.119Z,64.21
2023-01-19T11:11:02.396Z,64.46
2023-01-19T11:16:34.695Z,64.47
2023-01-19T11:22:21.499Z,64.16
2023-01-19T11:27:51.290Z,64.20
2023-01-19T11:33:24.671Z,63.62
2023-01-19T11:38:50.486Z,63.11
2023-01-19T11:44:18.136Z,64.09
2023-01-19T11:50:00.816Z,64.44
2023-01-19T11:55:37.871Z,63.64
2023-01-19T12:01:30.675Z,63.04
2023-01-19T12:06:55.697Z,63.11
2023-01-19T12:12:28.800Z,63.43
2023-01-19T12:17:54.129Z,63.02
2023-01-19T12:23:37.353Z,62.96
2023-01-19T12:29:13.182Z,63.68
2023-01-19T12:35:01.616Z,63.70
2023-01-19T12:40:27.519Z,63.42
2023-01-19T12:45:49.614Z,64.42
2023-01-19T12:51:23.323Z,64.25
2023-01-19T12:56:45.310Z,64.74
2023-01-19T13:02:25.535Z,65.41
2023-01-19T13:08:02.434Z,64.33
2023-01-19T13:13:24.905Z,64.47
2023-01-19T13:18:52.428Z,64.72
2023-01-19T13:24:22.329Z,64.75
2023-01-19T13:29:44.387Z,68.41
2023-01-19T13:35:13.073Z,69.32
2023-01-19T13:40:38.953Z,70.68
2023-01-19T13:46:01.421Z,72.00
2023-01-19T13:51:23.716Z,73.36
2023-01-19T13:56:50.211Z,73.00
2023-01-19T14:02:13.932Z,72.51
2023-01-19T14:07:35.700Z,73.15
2023-01-19T14:13:15.675Z,73.39
2023-01-19T14:18:37.399Z,73.90
2023-01-19T14:24:17.030Z,74.15
2023-01-19T14:29:38.849Z,75.50
2023-01-19T14:35:06.518Z,76.59
2023-01-19T14:40:29.772Z,76.50
2023-01-19T14:45:51.567Z,77.44
2023-01-19T14:51:18.872Z,76.28
2023-01-19T14:56:40.621Z,77.50
2023-01-19T15:02:02.451Z,77.35
2023-01-19T15:07:25.127Z,76.54
2023-01-19T15:12:48.151Z,77.22
2023-01-19T15:18:15.230Z,76.62
2023-01-19T15:23:36.965Z,76.26
2023-01-19T15:28:58.735Z,75.48
2023-01-19T15:34:20.527Z,76.47
2023-01-19T15:39:42.313Z,76.09
2023-01-19T15:45:36.347Z,75.73
2023-01-19T15:50:58.226Z,76.40
2023-01-19T15:56:25.944Z,75.97
2023-01-19T16:01:47.866Z,77.04
2023-01-19T16:07:09.763Z,77.28
2023-01-19T16:12:31.473Z,77.62
2023-01-19T16:17:53.252Z,76.92
2023-01-19T16:23:15.640Z,75.11
2023-01-19T16:28:37.718Z,73.42
2023-01-19T16:33:59.493Z,74.10
2023-01-19T16:39:21.788Z,73.36
2023-01-19T16:44:43.523Z,72.83
2023-01-19T16:50:05.868Z,72.56
2023-01-19T16:55:27.601Z,72.42
2023-01-19T17:00:49.518Z,71.93
2023-01-19T17:06:13.421Z,72.45
2023-01-19T17:11:36.430Z,73.12
2023-01-19T17:17:00.538Z,75.00
2023-01-19T17:22:22.393Z,74.85
2023-01-19T17:27:44.205Z,73.24
2023-01-19T17:33:06.004Z,73.52
2023-01-19T17:38:28.309Z,73.22
2023-01-19T17:43:51.368Z,72.85
2023-01-19T17:49:13.077Z,73.39
2023-01-19T17:54:34.979Z,73.95
2023-01-19T17:59:56.682Z,74.93
2023-01-19T18:05:19.196Z,75.48
2023-01-19T18:10:42.189Z,75.73
2023-01-19T18:16:07.319Z,75.57
2023-01-19T18:21:30.297Z,74.70
2023-01-19T18:26:54.240Z,74.21
2023-01-19T18:32:17.390Z,74.71
2023-01-19T18:37:39.254Z,75.54
2023-01-19T18:43:01.003Z,75.57
2023-01-19T18:48:22.910Z,75.59
2023-01-19T18:53:45.544Z,75.25
2023-01-19T18:59:07.358Z,75.78
2023-01-19T19:04:29.072Z,76.57
2023-01-19T19:09:50.838Z,76.90
2023-01-19T19:15:13.894Z,75.96
2023-01-19T19:20:38.702Z,77.38
2023-01-19T19:26:05.672Z,77.78
2023-01-19T19:31:28.133Z,77.37
2023-01-19T19:36:50.982Z,76.67
2023-01-19T19:42:12.792Z,75.68
2023-01-19T19:47:35.236Z,75.72
2023-01-19T19:52:58.760Z,75.39
2023-01-19T19:58:20.572Z,77.50
2023-01-19T20:03:42.664Z,78.76
2023-01-19T20:09:06.432Z,79.61
2023-01-19T20:14:28.148Z,79.45
2023-01-19T20:19:49.969Z,80.43
2023-01-19T20:25:11.746Z,79.84
2023-01-19T20:30:33.550Z,80.44
2023-01-19T20:35:55.378Z,80.68
2023-01-19T20:41:18.266Z,82.11
2023-01-19T20:46:40.540Z,82.26
2023-01-19T20:52:02.537Z,81.10
2023-01-19T20:57:24.299Z,81.87
2023-01-19T21:02:46.226Z,81.97
2023-01-19T21:08:08.901Z,81.59
2023-01-19T21:13:31.599Z,80.99
2023-01-19T21:18:53.891Z,81.46
2023-01-19T21:24:15.956Z,80.52
2023-01-19T21:29:37.676Z,80.74
2023-01-19T21:34:59.390Z,81.65
2023-01-19T21:40:21.193Z,81.59
2023-01-19T21:45:43.229Z,81.81
2023-01-19T21:51:05.214Z,82.13
2023-01-19T21:56:28.621Z,81.89
2023-01-19T22:01:50.598Z,81.83
2023-01-19T22:07:12.487Z,81.40
2023-01-19T22:12:34.231Z,82.52
2023-01-19T22:17:55.959Z,82.95
2023-01-19T22:23:17.713Z,83.02
2023-01-19T22:28:39.498Z,82.85
2023-01-19T22:34:01.300Z,82.86
2023-01-19T22:39:23.011Z,82.98
2023-01-19T22:44:45.806Z,82.34
2023-01-19T22:50:08.465Z,82.89
2023-01-19T22:55:30.623Z,83.68
2023-01-19T23:00:52.416Z,84.01
2023-01-19T23:06:19.852Z,83.81
2023-01-19T23:11:44.096Z,83.73
2023-01-19T23:17:06.011Z,83.17
2023-01-19T23:22:27.736Z,84.14
2023-01-19T23:27:49.471Z,83.26
2023-01-19T23:33:11.186Z,83.55
2023-01-19T23:38:32.914Z,84.08
2023-01-19T23:43:54.973Z,83.64
2023-01-19T23:49:18.082Z,83.43
2023-01-19T23:54:39.801Z,82.94
